createdAt,value
2023-05-10T00:03:41.913Z,5.20
2023-05-10T00:06:13.665Z,4.40
2023-05-10T00:11:15.117Z,4.80
2023-05-10T00:13:46.758Z,4.50
2023-05-10T00:16:18.309Z,5.10
2023-05-10T00:18:49.991Z,5.30
2023-05-10T00:21:21.425Z,5.40
2023-05-10T00:23:52.780Z,6.30
2023-05-10T00:26:24.349Z,6.00
2023-05-10T00:28:56.421Z,5.70
2023-05-10T00:31:27.886Z,5.90
2023-05-10T00:33:59.706Z,6.40
2023-05-10T00:36:32.458Z,5.60
2023-05-10T00:39:04.785Z,5.60
2023-05-10T00:41:36.338Z,5.30
2023-05-10T00:44:09.384Z,5.70
2023-05-10T00:46:41.036Z,5.00
2023-05-10T00:51:44.147Z,5.30
2023-05-10T00:54:16.457Z,5.70
2023-05-10T00:56:50.415Z,5.40
2023-05-10T00:59:21.951Z,4.70
2023-05-10T01:01:53.446Z,5.70
2023-05-10T01:04:26.914Z,5.30
2023-05-10T01:06:58.936Z,5.80
2023-05-10T01:09:30.600Z,5.20
2023-05-10T01:14:32.002Z,4.50
2023-05-10T01:17:03.998Z,4.90
2023-05-10T01:19:36.372Z,5.00
2023-05-10T01:22:11.237Z,5.00
2023-05-10T01:25:03.102Z,5.00
2023-05-10T01:28:17.244Z,5.00
2023-05-10T01:31:08.525Z,5.00
2023-05-10T01:33:43.539Z,4.70
2023-05-10T01:36:32.900Z,5.40
2023-05-10T01:39:08.053Z,4.60
2023-05-10T01:41:54.158Z,5.10
2023-05-10T01:44:30.131Z,4.60
2023-05-10T01:47:03.864Z,4.30
2023-05-10T01:49:37.172Z,4.20
2023-05-10T01:52:11.553Z,4.70
2023-05-10T01:54:45.418Z,5.00
2023-05-10T01:57:17.009Z,4.80
2023-05-10T01:59:48.612Z,4.30
2023-05-10T02:02:20.312Z,4.70
2023-05-10T02:07:21.692Z,5.30
2023-05-10T02:09:53.064Z,4.30
2023-05-10T02:12:26.329Z,4.60
2023-05-10T02:14:57.903Z,4.50
2023-05-10T02:17:29.862Z,4.50
2023-05-10T02:20:01.194Z,4.90
2023-05-10T02:22:32.921Z,4.80
2023-05-10T02:27:34.468Z,5.00
2023-05-10T02:30:07.040Z,3.90
2023-05-10T02:32:38.447Z,4.20
2023-05-10T02:35:11.163Z,5.00
2023-05-10T02:37:42.509Z,4.20
2023-05-10T02:40:14.727Z,4.30
2023-05-10T02:42:46.500Z,4.20
2023-05-10T02:45:20.134Z,3.50
2023-05-10T02:47:51.844Z,4.30
2023-05-10T02:52:54.426Z,4.30
2023-05-10T02:55:28.180Z,4.30
2023-05-10T02:58:01.324Z,4.30
2023-05-10T03:00:33.317Z,4.40
2023-05-10T03:03:04.986Z,5.00
2023-05-10T03:08:08.308Z,4.60
2023-05-10T03:10:43.856Z,4.60
2023-05-10T03:13:19.701Z,4.30
2023-05-10T03:15:58.935Z,5.20
2023-05-10T03:18:35.654Z,4.40
2023-05-10T03:21:07.744Z,4.20
2023-05-10T03:23:43.754Z,4.30
2023-05-10T03:26:17.965Z,4.30
2023-05-10T03:28:50.047Z,4.80
2023-05-10T03:33:52.120Z,3.80
2023-05-10T03:36:28.265Z,4.10
2023-05-10T03:38:59.775Z,4.20
2023-05-10T03:44:02.075Z,4.20
2023-05-10T03:46:33.742Z,4.10
2023-05-10T03:51:35.200Z,5.40
2023-05-10T03:54:07.432Z,4.80
2023-05-10T03:56:39.296Z,4.30
2023-05-10T03:59:11.450Z,4.80
2023-05-10T04:04:14.237Z,4.50
2023-05-10T04:06:45.916Z,4.30
2023-05-10T05:26:55.595Z,2.80
2023-05-10T05:29:29.700Z,2.70
2023-05-10T05:32:03.540Z,2.60
2023-05-10T05:34:35.524Z,3.10
2023-05-10T05:37:07.257Z,2.50
2023-05-10T05:42:11.568Z,2.50
2023-05-10T05:44:43.412Z,3.20
2023-05-10T05:49:46.994Z,2.70
2023-05-10T05:52:19.090Z,2.70
2023-05-10T05:54:50.986Z,2.90
2023-05-10T05:57:22.977Z,2.70
2023-05-10T05:59:54.374Z,3.30
2023-05-10T06:02:26.095Z,3.20
2023-05-10T06:04:57.802Z,3.10
2023-05-10T06:07:29.392Z,2.80
2023-05-10T06:10:00.949Z,2.20
2023-05-10T06:12:32.930Z,2.70
2023-05-10T06:15:05.456Z,2.90
2023-05-10T06:17:37.041Z,3.10
2023-05-10T06:20:10.542Z,3.30
2023-05-10T06:22:42.172Z,3.10
2023-05-10T06:25:15.684Z,3.00
2023-05-10T06:27:51.153Z,2.80
2023-05-10T06:30:28.625Z,3.10
2023-05-10T06:33:00.431Z,3.00
2023-05-10T06:35:33.236Z,3.00
2023-05-10T06:38:04.828Z,2.60
2023-05-10T06:43:06.874Z,2.70
2023-05-10T06:45:38.494Z,2.70
2023-05-10T06:50:40.220Z,2.40
2023-05-10T06:53:11.715Z,3.00
2023-05-10T06:55:43.064Z,3.00
2023-05-10T06:58:14.989Z,2.80
2023-05-10T07:00:48.091Z,2.50
2023-05-10T07:03:19.788Z,2.20
2023-05-10T07:05:51.316Z,4.00
2023-05-10T07:08:22.863Z,2.60
2023-05-10T07:10:54.249Z,3.00
2023-05-10T07:13:25.907Z,3.10
2023-05-10T07:15:58.832Z,2.90
2023-05-10T07:18:30.769Z,2.90
2023-05-10T07:21:03.012Z,3.30
2023-05-10T07:23:34.738Z,2.60
2023-05-10T07:28:38.600Z,3.00
2023-05-10T07:31:10.216Z,3.40
2023-05-10T07:33:42.304Z,2.90
2023-05-10T07:36:14.000Z,2.30
2023-05-10T07:41:15.922Z,2.90
2023-05-10T07:43:48.057Z,2.60
2023-05-10T07:46:20.593Z,3.10
2023-05-10T07:48:53.399Z,2.80
2023-05-10T07:51:24.805Z,2.80
2023-05-10T07:53:56.117Z,2.60
2023-05-10T07:56:30.743Z,2.60
2023-05-10T07:59:02.343Z,3.10
2023-05-10T08:01:35.551Z,3.30
2023-05-10T08:04:07.205Z,3.30
2023-05-10T08:06:39.625Z,2.90
2023-05-10T08:09:12.195Z,3.10
2023-05-10T08:11:43.879Z,2.90
2023-05-10T08:14:15.936Z,3.10
2023-05-10T08:16:47.720Z,3.90
2023-05-10T08:19:22.540Z,2.80
2023-05-10T08:21:56.849Z,2.70
2023-05-10T08:24:28.244Z,2.90
2023-05-10T08:26:59.742Z,2.50
2023-05-10T08:29:38.640Z,2.80
2023-05-10T08:32:18.533Z,2.70
2023-05-10T08:34:50.200Z,2.80
2023-05-10T08:37:21.886Z,2.40
2023-05-10T08:39:53.443Z,2.40
2023-05-10T08:42:25.966Z,2.70
2023-05-10T08:44:57.400Z,2.60
2023-05-10T08:47:29.840Z,2.90
2023-05-10T08:50:01.441Z,3.10
2023-05-10T08:55:03.279Z,2.50
2023-05-10T08:57:34.905Z,2.80
2023-05-10T09:00:07.852Z,2.80
2023-05-10T09:02:39.859Z,2.50
2023-05-10T09:05:12.930Z,2.90
2023-05-10T09:07:44.661Z,3.10
2023-05-10T09:10:16.637Z,2.30
2023-05-10T09:12:48.719Z,2.50
2023-05-10T09:15:21.290Z,2.30
2023-05-10T09:17:53.556Z,2.70
2023-05-10T09:20:25.373Z,2.80
2023-05-10T09:22:57.040Z,2.50
2023-05-10T09:25:28.630Z,2.40
2023-05-10T09:28:00.464Z,2.30
2023-05-10T09:33:02.910Z,2.50
2023-05-10T09:35:37.428Z,3.00
2023-05-10T09:38:08.905Z,2.60
2023-05-10T09:40:40.786Z,3.20
2023-05-10T09:43:13.065Z,3.00
2023-05-10T09:45:45.115Z,2.90
2023-05-10T09:48:17.297Z,3.60
2023-05-10T09:50:49.983Z,3.40
2023-05-10T09:53:21.710Z,3.50
2023-05-10T09:55:53.086Z,2.50
2023-05-10T09:58:25.056Z,2.80
2023-05-10T10:00:57.359Z,2.20
2023-05-10T10:03:30.939Z,2.60
2023-05-10T10:06:02.805Z,2.70
2023-05-10T10:08:34.471Z,3.00
2023-05-10T10:11:05.891Z,2.60
2023-05-10T10:13:38.096Z,2.90
2023-05-10T10:16:10.382Z,2.00
2023-05-10T10:18:41.898Z,2.20
2023-05-10T10:21:13.407Z,1.70
2023-05-10T10:23:45.379Z,2.10
2023-05-10T10:26:17.878Z,2.00
2023-05-10T10:28:54.246Z,1.50
2023-05-10T10:31:30.538Z,2.10
2023-05-10T10:34:04.411Z,2.10
2023-05-10T10:36:38.302Z,1.90
2023-05-10T10:39:13.074Z,2.30
2023-05-10T10:41:51.226Z,2.20
2023-05-10T10:44:36.050Z,2.60
2023-05-10T10:47:19.996Z,2.20
2023-05-10T10:49:55.762Z,3.10
2023-05-10T10:52:31.101Z,2.40
2023-05-10T10:55:05.400Z,2.90
2023-05-10T10:57:45.141Z,2.30
2023-05-10T11:00:32.275Z,1.80
2023-05-10T11:03:07.804Z,2.30
2023-05-10T11:05:43.788Z,2.20
2023-05-10T11:08:17.510Z,1.70
2023-05-10T11:11:04.732Z,2.30
2023-05-10T11:13:37.616Z,2.20
2023-05-10T11:16:20.321Z,1.90
2023-05-10T11:19:05.611Z,2.90
2023-05-10T11:21:46.667Z,2.30
2023-05-10T11:24:18.994Z,2.10
2023-05-10T11:26:51.873Z,1.90
2023-05-10T11:29:23.535Z,2.20
2023-05-10T11:34:29.735Z,1.80
2023-05-10T11:37:01.994Z,2.10
2023-05-10T11:39:34.756Z,1.90
2023-05-10T11:42:06.608Z,2.10
2023-05-10T11:44:38.468Z,3.10
2023-05-10T11:47:10.316Z,2.10
2023-05-10T11:49:41.842Z,2.30
2023-05-10T11:52:14.913Z,2.60
2023-05-10T11:54:54.732Z,2.20
2023-05-10T11:57:30.528Z,2.50
2023-05-10T12:00:02.019Z,2.20
2023-05-10T12:02:33.699Z,2.60
2023-05-10T12:05:05.937Z,2.40
2023-05-10T12:07:37.718Z,2.30
2023-05-10T12:10:16.026Z,2.60
2023-05-10T12:12:48.785Z,2.00
2023-05-10T12:15:23.544Z,2.10
2023-05-10T12:17:56.788Z,2.60
2023-05-10T12:20:29.927Z,2.00
2023-05-10T12:23:03.269Z,2.10
2023-05-10T12:25:36.342Z,2.40
2023-05-10T12:30:59.086Z,1.90
2023-05-10T12:33:31.509Z,2.00
2023-05-10T12:36:03.125Z,2.20
2023-05-10T12:38:38.339Z,2.30
2023-05-10T12:41:10.329Z,2.50
2023-05-10T12:43:41.967Z,2.30
2023-05-10T12:46:14.054Z,2.30
2023-05-10T12:48:46.472Z,2.30
2023-05-10T12:51:20.538Z,2.20
2023-05-10T12:53:52.087Z,2.40
2023-05-10T12:56:23.740Z,2.60
2023-05-10T12:58:55.164Z,2.90
2023-05-10T13:01:26.568Z,2.60
2023-05-10T13:03:58.064Z,2.70
2023-05-10T13:06:29.462Z,2.70
2023-05-10T13:11:31.027Z,2.70
2023-05-10T13:14:04.481Z,2.60
2023-05-10T13:16:36.039Z,3.10
2023-05-10T13:19:07.396Z,2.90
2023-05-10T13:21:38.804Z,2.50
2023-05-10T13:24:10.270Z,5.10
2023-05-10T13:26:41.828Z,3.50
2023-05-10T13:29:13.282Z,3.00
2023-05-10T13:31:44.647Z,2.80
2023-05-10T13:34:16.218Z,2.70
2023-05-10T13:36:47.567Z,3.10
2023-05-10T13:39:18.931Z,3.60
2023-05-10T13:41:50.493Z,2.90
2023-05-10T13:44:22.415Z,3.10
2023-05-10T13:46:53.861Z,2.90
2023-05-10T13:49:25.238Z,3.30
2023-05-10T13:51:56.694Z,2.80
2023-05-10T13:54:30.702Z,3.60
2023-05-10T13:57:02.498Z,3.00
2023-05-10T14:02:05.086Z,2.90
2023-05-10T14:04:37.394Z,3.20
2023-05-10T14:07:08.730Z,2.60
2023-05-10T14:09:40.173Z,3.00
2023-05-10T14:12:11.539Z,3.70
2023-05-10T14:14:42.931Z,2.80
2023-05-10T14:17:14.344Z,2.80
2023-05-10T14:19:45.875Z,2.70
2023-05-10T14:22:17.494Z,2.70
2023-05-10T14:27:20.667Z,2.70
2023-05-10T14:29:53.308Z,3.00
2023-05-10T14:32:25.074Z,2.30
2023-05-10T14:34:56.925Z,2.70
2023-05-10T14:37:28.391Z,2.50
2023-05-10T14:39:59.778Z,2.20
2023-05-10T14:42:31.736Z,2.10
2023-05-10T14:45:03.075Z,2.40
2023-05-10T14:47:34.508Z,2.30
2023-05-10T14:50:06.582Z,1.80
2023-05-10T14:52:37.974Z,2.20
2023-05-10T14:55:11.240Z,2.10
2023-05-10T14:57:43.375Z,2.40
2023-05-10T15:00:18.316Z,2.10
2023-05-10T15:02:50.399Z,2.40
2023-05-10T15:05:22.631Z,2.10
2023-05-10T15:07:54.657Z,1.80
2023-05-10T15:10:26.485Z,2.40
2023-05-10T15:12:57.983Z,2.80
2023-05-10T15:15:30.379Z,2.50
2023-05-10T15:18:03.617Z,3.00
2023-05-10T15:20:34.953Z,2.30
2023-05-10T15:23:06.311Z,2.10
2023-05-10T15:25:40.163Z,2.40
2023-05-10T15:28:11.895Z,2.20
2023-05-10T15:33:13.138Z,2.60
2023-05-10T15:35:44.480Z,2.30
2023-05-10T15:38:16.869Z,2.50
2023-05-10T15:40:48.623Z,3.00
2023-05-10T15:43:20.314Z,2.80
2023-05-10T15:45:52.285Z,2.10
2023-05-10T15:48:23.934Z,2.50
2023-05-10T15:50:55.585Z,2.80
2023-05-10T15:56:00.599Z,2.90
2023-05-10T15:58:32.632Z,2.40
2023-05-10T16:01:04.552Z,2.40
2023-05-10T16:03:37.513Z,2.60
2023-05-10T16:06:09.440Z,2.70
2023-05-10T16:11:10.995Z,3.50
2023-05-10T16:16:12.775Z,3.70
2023-05-10T16:18:44.491Z,3.10
2023-05-10T16:23:46.883Z,3.10
2023-05-10T16:26:18.803Z,3.90
2023-05-10T16:28:50.415Z,5.00
2023-05-10T16:31:22.593Z,5.10
2023-05-10T16:33:54.307Z,4.60
2023-05-10T16:38:56.220Z,4.50
2023-05-10T16:41:29.087Z,5.00
2023-05-10T16:44:01.186Z,5.70
2023-05-10T16:46:33.934Z,6.80
2023-05-10T16:49:06.263Z,6.10
2023-05-10T16:51:38.091Z,4.60
2023-05-10T16:54:09.869Z,3.90
2023-05-10T16:56:41.737Z,7.90
2023-05-10T17:01:43.295Z,3.80
2023-05-10T17:04:15.640Z,3.20
2023-05-10T17:06:47.281Z,4.10
2023-05-10T17:09:20.613Z,4.30
2023-05-10T17:11:52.220Z,5.10
2023-05-10T17:14:23.787Z,4.50
2023-05-10T17:16:55.962Z,4.60
2023-05-10T17:19:27.776Z,4.50
2023-05-10T17:21:59.392Z,3.80
2023-05-10T17:24:31.465Z,4.10
2023-05-10T17:27:03.871Z,4.70
2023-05-10T17:29:35.366Z,3.90
2023-05-10T17:32:09.403Z,6.00
2023-05-10T17:34:41.572Z,5.80
2023-05-10T17:37:13.393Z,5.40
2023-05-10T17:39:44.828Z,7.20
2023-05-10T17:42:18.980Z,5.70
2023-05-10T17:44:50.657Z,6.00
2023-05-10T17:47:22.223Z,6.30
2023-05-10T17:49:54.486Z,6.90
2023-05-10T17:54:56.023Z,7.40
2023-05-10T17:59:58.259Z,7.60
2023-05-10T18:02:30.108Z,7.10
2023-05-10T18:05:02.420Z,6.60
2023-05-10T18:07:36.161Z,8.40
2023-05-10T18:10:09.894Z,8.40
2023-05-10T18:12:41.902Z,8.90
2023-05-10T18:15:14.280Z,8.80
2023-05-10T18:17:46.048Z,8.90
2023-05-10T18:20:17.488Z,10.00
2023-05-10T18:22:49.168Z,10.00
2023-05-10T18:27:51.557Z,10.00
2023-05-10T18:30:24.209Z,10.20
2023-05-10T18:32:56.144Z,9.80
2023-05-10T18:35:28.052Z,8.70
2023-05-10T18:37:59.735Z,9.10
2023-05-10T18:40:31.494Z,7.90
2023-05-10T18:45:33.254Z,7.90
2023-05-10T18:48:05.408Z,8.40
2023-05-10T18:50:37.116Z,8.90
2023-05-10T18:53:08.730Z,9.70
2023-05-10T18:55:40.621Z,8.30
2023-05-10T18:58:12.568Z,8.70
2023-05-10T19:00:44.195Z,7.60
2023-05-10T19:05:48.559Z,6.70
2023-05-10T19:08:20.583Z,6.80
2023-05-10T19:10:52.199Z,7.10
2023-05-10T19:13:25.044Z,7.70
2023-05-10T19:16:07.020Z,7.60
2023-05-10T19:18:40.046Z,6.20
2023-05-10T19:21:12.421Z,7.20
2023-05-10T19:23:44.063Z,7.40
2023-05-10T19:28:45.831Z,7.30
2023-05-10T19:31:21.790Z,8.30
2023-05-10T19:33:53.880Z,8.00
2023-05-10T19:36:25.417Z,9.10
2023-05-10T19:38:57.100Z,9.20
2023-05-10T19:41:29.311Z,10.10
2023-05-10T19:44:01.458Z,9.20
2023-05-10T19:46:33.195Z,8.10
2023-05-10T19:49:05.195Z,8.50
2023-05-10T19:51:36.734Z,8.90
2023-05-10T19:54:08.632Z,9.70
2023-05-10T19:56:42.973Z,7.60
2023-05-10T19:59:14.251Z,8.00
2023-05-10T20:01:46.349Z,6.60
2023-05-10T20:04:17.744Z,6.50
2023-05-10T20:06:49.474Z,7.00
2023-05-10T20:11:51.919Z,6.80
2023-05-10T20:14:23.878Z,6.60
2023-05-10T20:16:55.960Z,6.40
2023-05-10T20:19:27.771Z,6.10
2023-05-10T20:21:59.179Z,7.20
2023-05-10T20:24:30.536Z,6.20
2023-05-10T20:27:02.697Z,7.10
2023-05-10T20:29:34.063Z,7.80
2023-05-10T20:32:05.897Z,8.00
2023-05-10T20:34:38.371Z,7.30
2023-05-10T20:37:09.821Z,6.70
2023-05-10T20:39:41.370Z,7.70
2023-05-10T20:42:13.102Z,7.70
2023-05-10T20:44:44.652Z,7.30
2023-05-10T20:47:16.991Z,7.40
2023-05-10T20:49:48.604Z,6.80
2023-05-10T20:52:20.494Z,7.00
2023-05-10T20:54:52.812Z,7.40
2023-05-10T20:57:24.287Z,7.10
2023-05-10T20:59:56.130Z,6.40
2023-05-10T21:04:58.313Z,7.70
2023-05-10T21:09:59.515Z,7.90
2023-05-10T21:12:31.122Z,6.80
2023-05-10T21:17:32.822Z,7.00
2023-05-10T21:22:33.992Z,7.20
2023-05-10T21:25:05.781Z,7.30
2023-05-10T21:27:37.296Z,7.60
2023-05-10T21:32:42.740Z,8.70
2023-05-10T21:35:14.856Z,8.30
2023-05-10T21:40:17.775Z,8.00
2023-05-10T21:42:49.730Z,8.20
2023-05-10T21:45:22.149Z,8.70
2023-05-10T21:47:53.523Z,7.40
2023-05-10T21:50:25.018Z,7.40
2023-05-10T21:52:56.515Z,6.30
2023-05-10T21:55:28.305Z,7.00
2023-05-10T22:00:30.567Z,7.40
2023-05-10T22:03:02.759Z,7.40
2023-05-10T22:05:35.311Z,6.70
2023-05-10T22:08:08.402Z,7.40
2023-05-10T22:10:39.848Z,7.40
2023-05-10T22:13:12.104Z,7.50
2023-05-10T22:15:44.364Z,7.60
2023-05-10T22:18:15.843Z,6.60
2023-05-10T22:20:49.201Z,6.70
2023-05-10T22:23:20.576Z,6.50
2023-05-10T22:25:51.906Z,5.60
2023-05-10T22:28:25.485Z,6.10
2023-05-10T22:30:58.795Z,6.30
2023-05-10T22:33:30.677Z,5.90
2023-05-10T22:36:02.629Z,6.70
2023-05-10T22:38:34.115Z,7.20
2023-05-10T22:41:05.807Z,6.60
2023-05-10T22:43:37.285Z,7.60
2023-05-10T22:46:08.967Z,6.30
2023-05-10T22:48:40.641Z,7.30
2023-05-10T22:53:41.763Z,7.40
2023-05-10T22:56:13.214Z,6.70
2023-05-10T22:58:44.675Z,6.50
2023-05-10T23:01:16.388Z,6.50
2023-05-10T23:06:18.010Z,5.90
2023-05-10T23:08:49.627Z,6.70
2023-05-10T23:13:52.234Z,7.30
2023-05-10T23:16:24.171Z,6.80
2023-05-10T23:18:56.085Z,7.50
2023-05-10T23:21:29.319Z,7.30
2023-05-10T23:24:02.162Z,7.50
2023-05-10T23:26:33.575Z,8.60
2023-05-10T23:29:05.100Z,7.30
2023-05-10T23:31:37.350Z,8.30
2023-05-10T23:34:09.642Z,9.30
2023-05-10T23:36:41.111Z,7.00
2023-05-10T23:39:12.728Z,6.50
2023-05-10T23:44:14.587Z,7.60
2023-05-10T23:49:17.630Z,8.40
2023-05-10T23:51:49.126Z,7.10
2023-05-10T23:54:20.835Z,7.50
2023-05-10T23:59:23.290Z,6.90
